createdAt,value
2018-05-29T00:00:52.896Z,60.43
2018-05-29T00:03:21.252Z,59.76
2018-05-29T00:05:49.580Z,59.84
2018-05-29T00:08:17.942Z,59.41
2018-05-29T00:10:46.269Z,59.55
2018-05-29T00:13:14.619Z,59.54
2018-05-29T00:15:42.948Z,59.12
2018-05-29T00:18:11.302Z,59.19
2018-05-29T00:20:39.628Z,59.45
2018-05-29T00:23:07.976Z,59.46
2018-05-29T00:25:36.304Z,59.43
2018-05-29T00:28:04.657Z,59.35
2018-05-29T00:30:32.983Z,59.32
2018-05-29T00:33:01.338Z,59.72
2018-05-29T00:35:29.664Z,60.02
2018-05-29T00:37:58.016Z,60.07
2018-05-29T00:40:26.341Z,60.04
2018-05-29T00:42:54.687Z,60.12
2018-05-29T00:45:23.016Z,60.35
2018-05-29T00:47:51.368Z,60.18
2018-05-29T00:50:19.705Z,59.75
2018-05-29T00:52:48.057Z,59.79
2018-05-29T00:55:28.176Z,59.81
2018-05-29T00:57:56.529Z,59.64
2018-05-29T01:00:24.859Z,59.55
2018-05-29T01:02:53.204Z,59.41
2018-05-29T01:05:21.541Z,59.17
2018-05-29T01:07:49.904Z,59.62
2018-05-29T01:10:18.227Z,60.42
2018-05-29T01:12:46.585Z,60.10
2018-05-29T01:15:14.913Z,59.79
2018-05-29T01:17:43.268Z,60.37
2018-05-29T01:20:11.613Z,60.57
2018-05-29T01:22:39.960Z,60.46
2018-05-29T01:25:08.297Z,60.12
2018-05-29T01:27:36.644Z,60.51
2018-05-29T01:30:04.976Z,60.55
2018-05-29T01:32:33.337Z,60.41
2018-05-29T01:35:01.668Z,60.40
2018-05-29T01:37:30.016Z,60.36
2018-05-29T01:39:58.346Z,60.19
2018-05-29T01:42:26.700Z,60.23
2018-05-29T01:44:55.028Z,60.38
2018-05-29T01:47:23.384Z,60.51
2018-05-29T01:49:51.718Z,60.83
2018-05-29T01:52:20.085Z,60.36
2018-05-29T01:54:48.413Z,60.85
2018-05-29T01:57:16.750Z,61.36
2018-05-29T01:59:45.100Z,61.04
2018-05-29T02:02:13.429Z,61.17
2018-05-29T02:04:41.784Z,61.28
2018-05-29T02:07:10.121Z,61.29
2018-05-29T02:09:38.471Z,61.78
2018-05-29T02:12:06.805Z,61.53
2018-05-29T02:14:35.173Z,61.86
2018-05-29T02:17:03.508Z,61.94
2018-05-29T02:19:31.860Z,61.78
2018-05-29T02:22:00.187Z,61.66
2018-05-29T02:24:28.536Z,61.87
2018-05-29T02:26:56.872Z,61.95
2018-05-29T02:29:25.237Z,62.10
2018-05-29T02:31:53.557Z,62.47
2018-05-29T02:34:21.907Z,62.63
2018-05-29T02:36:50.240Z,62.37
2018-05-29T02:39:18.592Z,62.28
2018-05-29T02:41:46.923Z,62.68
2018-05-29T02:44:15.275Z,62.47
2018-05-29T02:46:43.610Z,62.55
2018-05-29T02:49:11.961Z,62.10
2018-05-29T02:51:40.290Z,61.82
2018-05-29T02:54:08.645Z,62.20
2018-05-29T02:56:36.977Z,62.45
2018-05-29T02:59:05.334Z,62.45
2018-05-29T03:01:33.658Z,62.46
2018-05-29T03:04:02.009Z,62.28
2018-05-29T03:06:30.340Z,61.82
2018-05-29T03:08:58.687Z,61.98
2018-05-29T03:11:27.021Z,62.08
2018-05-29T03:13:55.369Z,62.07
2018-05-29T03:16:23.696Z,62.05
2018-05-29T03:18:52.058Z,62.07
2018-05-29T03:21:20.380Z,62.01
2018-05-29T03:23:48.728Z,61.88
2018-05-29T03:26:17.065Z,61.80
2018-05-29T03:28:45.415Z,62.05
2018-05-29T03:31:13.749Z,61.97
2018-05-29T03:33:42.102Z,62.50
2018-05-29T03:36:10.437Z,62.79
2018-05-29T03:38:38.783Z,62.89
2018-05-29T03:41:07.112Z,62.63
2018-05-29T03:43:35.465Z,62.41
2018-05-29T03:46:03.800Z,62.39
2018-05-29T03:48:32.145Z,62.06
2018-05-29T03:51:00.476Z,62.64
2018-05-29T03:53:28.832Z,62.59
2018-05-29T03:55:57.164Z,62.80
2018-05-29T03:58:25.490Z,63.23
2018-05-29T04:00:53.845Z,63.18
2018-05-29T04:03:22.174Z,63.42
2018-05-29T04:05:51.364Z,63.22
2018-05-29T04:08:19.696Z,63.01
2018-05-29T04:10:48.040Z,63.33
2018-05-29T04:13:16.369Z,63.12
2018-05-29T04:15:44.731Z,62.90
2018-05-29T04:18:13.056Z,63.42
2018-05-29T04:20:41.416Z,63.29
2018-05-29T04:23:09.741Z,63.37
2018-05-29T04:25:38.093Z,63.27
2018-05-29T04:28:06.426Z,63.20
2018-05-29T04:30:34.772Z,62.87
2018-05-29T04:33:03.108Z,63.25
2018-05-29T04:35:31.465Z,63.42
2018-05-29T04:37:59.791Z,63.05
2018-05-29T04:40:28.149Z,62.77
2018-05-29T04:42:56.476Z,62.39
2018-05-29T04:45:24.866Z,62.48
2018-05-29T04:47:53.179Z,62.11
2018-05-29T04:50:21.528Z,62.11
2018-05-29T04:52:49.861Z,61.73
2018-05-29T04:55:18.208Z,61.41
2018-05-29T04:57:46.535Z,61.37
2018-05-29T05:00:14.886Z,62.05
2018-05-29T05:02:43.212Z,62.10
2018-05-29T05:05:11.569Z,61.73
2018-05-29T05:07:39.904Z,61.84
2018-05-29T05:10:08.256Z,61.78
2018-05-29T05:12:36.584Z,61.37
2018-05-29T05:15:04.936Z,60.80
2018-05-29T05:17:33.273Z,62.16
2018-05-29T05:20:01.634Z,61.92
2018-05-29T05:22:29.973Z,61.79
2018-05-29T05:24:58.333Z,61.73
2018-05-29T05:27:26.669Z,61.38
2018-05-29T05:29:55.028Z,61.80
2018-05-29T05:32:23.365Z,61.62
2018-05-29T05:34:51.726Z,60.80
2018-05-29T05:37:20.064Z,61.34
2018-05-29T05:39:48.422Z,60.71
2018-05-29T05:42:16.760Z,61.12
2018-05-29T05:44:45.113Z,61.03
2018-05-29T05:47:13.448Z,59.31
2018-05-29T05:49:41.812Z,59.32
2018-05-29T05:52:10.140Z,59.37
2018-05-29T05:54:38.515Z,58.64
2018-05-29T05:57:06.843Z,57.68
2018-05-29T05:59:35.185Z,57.44
2018-05-29T06:02:03.553Z,56.68
2018-05-29T06:04:31.892Z,56.11
2018-05-29T06:07:00.253Z,55.91
2018-05-29T06:09:28.588Z,55.85
2018-05-29T06:11:56.948Z,55.93
2018-05-29T06:14:25.284Z,55.66
2018-05-29T06:16:53.640Z,54.71
2018-05-29T06:19:21.976Z,54.83
2018-05-29T06:21:50.341Z,54.92
2018-05-29T06:24:18.683Z,54.54
2018-05-29T06:26:47.029Z,54.45
2018-05-29T06:29:15.370Z,54.26
2018-05-29T06:31:43.977Z,54.30
2018-05-29T06:34:12.310Z,54.45
2018-05-29T06:36:40.668Z,54.40
2018-05-29T06:39:09.013Z,54.22
2018-05-29T06:41:37.364Z,54.08
2018-05-29T06:44:05.704Z,53.88
2018-05-29T06:46:34.057Z,54.02
2018-05-29T06:49:02.397Z,53.37
2018-05-29T06:51:30.752Z,53.12
2018-05-29T06:53:59.093Z,51.87
2018-05-29T06:56:27.449Z,52.47
2018-05-29T06:58:55.784Z,52.48
2018-05-29T07:01:24.144Z,52.79
2018-05-29T07:03:52.539Z,52.48
2018-05-29T07:06:20.843Z,51.73
2018-05-29T07:08:49.172Z,51.97
2018-05-29T07:11:18.444Z,52.15
2018-05-29T07:13:46.785Z,52.22
2018-05-29T07:16:15.144Z,51.66
2018-05-29T07:18:43.489Z,51.96
2018-05-29T07:21:11.848Z,52.31
2018-05-29T07:23:40.185Z,53.33
2018-05-29T07:26:08.537Z,53.37
2018-05-29T07:28:36.864Z,54.68
2018-05-29T07:31:05.219Z,54.23
2018-05-29T07:33:33.544Z,54.32
2018-05-29T07:36:01.898Z,54.35
2018-05-29T07:38:30.228Z,54.61
2018-05-29T07:40:58.584Z,54.24
2018-05-29T07:43:26.920Z,54.42
2018-05-29T07:45:55.269Z,53.57
2018-05-29T07:48:23.604Z,53.95
2018-05-29T07:50:51.957Z,54.04
2018-05-29T07:53:20.289Z,54.34
2018-05-29T07:55:48.657Z,53.35
2018-05-29T07:58:17.875Z,53.22
2018-05-29T08:00:46.196Z,52.70
2018-05-29T08:03:14.553Z,52.15
2018-05-29T08:05:42.884Z,52.28
2018-05-29T08:08:11.231Z,51.72
2018-05-29T08:10:39.642Z,51.69
2018-05-29T08:13:07.912Z,51.58
2018-05-29T08:15:36.248Z,52.22
2018-05-29T08:18:04.596Z,51.93
2018-05-29T08:20:32.932Z,51.42
2018-05-29T08:23:01.290Z,51.90
2018-05-29T08:25:29.613Z,52.42
2018-05-29T08:27:58.004Z,52.62
2018-05-29T08:30:26.300Z,52.00
2018-05-29T08:32:54.661Z,52.20
2018-05-29T08:35:23.423Z,51.26
2018-05-29T08:37:51.776Z,51.19
2018-05-29T08:40:20.112Z,51.74
2018-05-29T08:42:48.481Z,51.14
2018-05-29T08:45:16.812Z,50.99
2018-05-29T08:47:45.164Z,51.00
2018-05-29T08:50:13.506Z,50.53
2018-05-29T08:52:41.861Z,49.50
2018-05-29T08:55:10.201Z,50.36
2018-05-29T08:57:38.556Z,51.31
2018-05-29T09:00:06.896Z,50.75
2018-05-29T09:02:35.252Z,49.90
2018-05-29T09:05:03.592Z,49.96
2018-05-29T09:07:31.962Z,49.24
2018-05-29T09:10:00.301Z,48.56
2018-05-29T09:12:29.157Z,48.17
2018-05-29T09:14:57.490Z,46.45
2018-05-29T09:17:25.857Z,46.74
2018-05-29T09:19:54.200Z,46.19
2018-05-29T09:22:22.548Z,45.51
2018-05-29T09:24:50.884Z,45.34
2018-05-29T09:27:19.236Z,45.43
2018-05-29T09:29:47.674Z,46.81
2018-05-29T09:32:15.928Z,46.27
2018-05-29T09:34:44.260Z,46.37
2018-05-29T09:37:12.616Z,46.29
2018-05-29T09:39:40.949Z,45.57
2018-05-29T09:42:09.308Z,45.90
2018-05-29T09:44:37.646Z,43.46
2018-05-29T09:47:06.009Z,42.78
2018-05-29T09:49:34.333Z,42.24
2018-05-29T09:52:03.449Z,42.75
2018-05-29T09:54:31.829Z,42.54
2018-05-29T09:57:00.128Z,42.00
2018-05-29T09:59:28.460Z,41.14
2018-05-29T10:01:56.796Z,41.56
2018-05-29T10:04:25.187Z,40.61
2018-05-29T10:06:53.501Z,40.64
2018-05-29T10:09:21.860Z,41.38
2018-05-29T10:11:51.221Z,40.16
2018-05-29T10:14:19.577Z,39.60
2018-05-29T10:16:47.921Z,40.42
2018-05-29T10:19:16.270Z,40.12
2018-05-29T10:21:44.610Z,40.89
2018-05-29T10:24:12.963Z,41.32
2018-05-29T10:26:41.304Z,41.22
2018-05-29T10:29:09.665Z,40.73
2018-05-29T10:31:38.893Z,41.12
2018-05-29T10:34:07.257Z,40.64
2018-05-29T10:36:35.589Z,40.45
2018-05-29T10:39:03.956Z,40.34
2018-05-29T10:41:32.293Z,39.80
2018-05-29T10:44:00.640Z,39.51
2018-05-29T10:46:28.982Z,39.37
2018-05-29T10:48:57.341Z,39.43
2018-05-29T10:51:25.795Z,39.80
2018-05-29T10:53:54.143Z,38.77
2018-05-29T10:56:22.481Z,36.47
2018-05-29T10:58:50.828Z,37.51
2018-05-29T11:01:19.153Z,36.86
2018-05-29T11:03:47.505Z,35.99
2018-05-29T11:06:15.833Z,35.52
2018-05-29T11:08:44.180Z,35.12
2018-05-29T11:11:13.344Z,34.87
2018-05-29T11:13:41.691Z,35.34
2018-05-29T11:16:10.025Z,34.33
2018-05-29T11:18:38.381Z,33.49
2018-05-29T11:21:06.704Z,33.78
2018-05-29T11:23:35.063Z,34.03
2018-05-29T11:26:03.388Z,33.81
2018-05-29T11:28:31.741Z,33.33
2018-05-29T11:31:00.064Z,32.91
2018-05-29T11:33:28.416Z,33.41
2018-05-29T11:35:56.744Z,32.61
2018-05-29T11:38:25.113Z,33.31
2018-05-29T11:40:53.449Z,33.68
2018-05-29T11:43:21.801Z,33.38
2018-05-29T11:45:50.129Z,33.07
2018-05-29T11:48:18.616Z,33.66
2018-05-29T11:50:46.976Z,33.36
2018-05-29T11:53:15.305Z,33.53
2018-05-29T11:55:43.661Z,33.92
2018-05-29T11:58:11.994Z,33.58
2018-05-29T12:00:40.365Z,32.65
2018-05-29T12:03:08.713Z,33.72
2018-05-29T12:05:37.710Z,33.79
2018-05-29T12:08:06.057Z,34.53
2018-05-29T12:10:34.409Z,33.91
2018-05-29T12:13:02.737Z,33.14
2018-05-29T12:15:31.079Z,33.03
2018-05-29T12:17:59.406Z,33.29
2018-05-29T12:20:27.769Z,33.21
2018-05-29T12:22:56.101Z,34.21
2018-05-29T12:25:24.456Z,34.00
2018-05-29T12:27:52.788Z,34.03
2018-05-29T12:30:21.139Z,33.88
2018-05-29T12:32:49.505Z,33.17
2018-05-29T12:35:17.913Z,33.83
2018-05-29T12:37:46.248Z,34.36
2018-05-29T12:40:14.746Z,33.10
2018-05-29T12:42:43.037Z,33.67
2018-05-29T12:45:11.380Z,34.23
2018-05-29T12:47:39.733Z,33.90
2018-05-29T12:50:08.064Z,33.81
2018-05-29T12:52:36.506Z,34.24
2018-05-29T12:55:04.921Z,34.00
2018-05-29T12:57:33.271Z,33.95
2018-05-29T13:00:01.601Z,34.35
2018-05-29T13:02:30.129Z,34.37
2018-05-29T13:04:58.508Z,34.63
2018-05-29T13:07:26.848Z,34.25
2018-05-29T13:09:55.172Z,33.81
2018-05-29T13:12:24.495Z,34.38
2018-05-29T13:14:52.807Z,33.79
2018-05-29T13:17:21.158Z,33.24
2018-05-29T13:19:49.481Z,33.04
2018-05-29T13:22:17.931Z,32.51
2018-05-29T13:24:46.302Z,32.55
2018-05-29T13:27:14.664Z,31.95
2018-05-29T13:29:42.997Z,32.21
2018-05-29T13:32:11.352Z,32.47
2018-05-29T13:34:39.673Z,33.04
2018-05-29T13:37:08.018Z,31.53
2018-05-29T13:39:36.345Z,31.94
2018-05-29T13:42:04.697Z,31.51
2018-05-29T13:44:33.025Z,31.85
2018-05-29T13:47:01.377Z,31.62
2018-05-29T13:49:29.704Z,32.05
2018-05-29T13:51:58.065Z,30.80
2018-05-29T13:54:26.396Z,31.83
2018-05-29T13:56:54.744Z,32.47
2018-05-29T13:59:23.173Z,32.71
2018-05-29T14:01:51.521Z,32.08
2018-05-29T14:04:19.929Z,31.74
2018-05-29T14:06:48.281Z,32.47
2018-05-29T14:09:16.605Z,32.45
2018-05-29T14:11:44.962Z,32.62
2018-05-29T14:14:13.288Z,32.11
2018-05-29T14:16:41.636Z,31.92
2018-05-29T14:19:09.969Z,32.23
2018-05-29T14:21:38.312Z,32.10
2018-05-29T14:24:06.649Z,32.47
2018-05-29T14:26:34.995Z,32.81
2018-05-29T14:29:03.312Z,32.27
2018-05-29T14:31:31.699Z,32.70
2018-05-29T14:34:00.017Z,32.00
2018-05-29T14:36:28.360Z,32.52
2018-05-29T14:38:56.701Z,32.57
2018-05-29T14:41:25.055Z,31.76
2018-05-29T14:43:53.483Z,32.45
2018-05-29T14:46:21.735Z,32.30
2018-05-29T14:48:50.092Z,31.93
2018-05-29T14:51:18.420Z,32.12
2018-05-29T14:53:46.773Z,32.23
2018-05-29T14:56:15.093Z,32.24
2018-05-29T14:58:43.492Z,31.95
2018-05-29T15:01:11.803Z,31.86
2018-05-29T15:03:40.148Z,32.21
2018-05-29T15:06:08.476Z,32.06
2018-05-29T15:08:36.837Z,32.74
2018-05-29T15:11:05.176Z,32.64
2018-05-29T15:13:33.521Z,32.25
2018-05-29T15:16:01.848Z,31.82
2018-05-29T15:18:30.248Z,32.67
2018-05-29T15:20:59.588Z,32.38
2018-05-29T15:23:27.937Z,32.43
2018-05-29T15:25:56.259Z,32.45
2018-05-29T15:28:24.616Z,32.20
2018-05-29T15:30:52.941Z,32.46
2018-05-29T15:33:21.315Z,32.69
2018-05-29T15:35:49.608Z,33.42
2018-05-29T15:38:17.969Z,33.72
2018-05-29T15:40:46.326Z,34.00
2018-05-29T15:43:14.659Z,33.47
2018-05-29T15:45:42.983Z,33.53
2018-05-29T15:48:11.328Z,33.81
2018-05-29T15:50:39.665Z,34.26
2018-05-29T15:53:08.025Z,34.21
2018-05-29T15:55:36.354Z,34.17
2018-05-29T15:58:04.705Z,34.23
2018-05-29T16:00:33.976Z,34.61
2018-05-29T16:03:02.325Z,34.18
2018-05-29T16:05:30.656Z,34.40
2018-05-29T16:07:59.000Z,34.88
2018-05-29T16:10:27.333Z,35.39
2018-05-29T16:12:55.684Z,35.25
2018-05-29T16:15:24.016Z,36.11
2018-05-29T16:17:52.368Z,36.54
2018-05-29T16:20:20.697Z,36.57
2018-05-29T16:22:49.052Z,36.40
2018-05-29T16:25:17.380Z,36.61
2018-05-29T16:27:45.736Z,36.62
2018-05-29T16:30:14.064Z,36.77
2018-05-29T16:32:42.425Z,36.71
2018-05-29T16:35:10.752Z,37.03
2018-05-29T16:37:39.099Z,37.64
2018-05-29T16:40:08.346Z,37.66
2018-05-29T16:42:36.688Z,37.85
2018-05-29T16:45:05.020Z,38.31
2018-05-29T16:47:33.352Z,38.59
2018-05-29T16:50:01.718Z,38.65
2018-05-29T16:52:30.049Z,38.65
2018-05-29T16:54:58.406Z,38.88
2018-05-29T16:57:26.741Z,38.72
2018-05-29T16:59:55.932Z,38.53
2018-05-29T17:02:24.265Z,38.53
2018-05-29T17:04:52.663Z,38.84
2018-05-29T17:07:20.957Z,39.20
2018-05-29T17:09:49.310Z,39.11
2018-05-29T17:12:17.631Z,39.29
2018-05-29T17:14:45.992Z,39.56
2018-05-29T17:17:14.321Z,39.52
2018-05-29T17:19:43.694Z,39.81
2018-05-29T17:22:12.020Z,40.18
2018-05-29T17:24:40.376Z,40.39
2018-05-29T17:27:08.752Z,40.62
2018-05-29T17:29:37.147Z,40.72
2018-05-29T17:32:05.503Z,41.31
2018-05-29T17:34:33.849Z,42.29
2018-05-29T17:37:02.216Z,43.21
2018-05-29T17:39:30.568Z,43.64
2018-05-29T17:41:58.898Z,44.40
2018-05-29T17:44:27.261Z,43.90
2018-05-29T17:46:55.584Z,43.51
2018-05-29T17:49:23.932Z,43.38
2018-05-29T17:51:52.269Z,43.68
2018-05-29T17:54:20.616Z,43.22
2018-05-29T17:56:48.945Z,43.33
2018-05-29T17:59:17.292Z,43.88
2018-05-29T18:01:46.261Z,43.97
2018-05-29T18:04:14.607Z,43.98
2018-05-29T18:06:42.941Z,44.48
2018-05-29T18:09:11.315Z,44.82
2018-05-29T18:11:39.649Z,45.35
2018-05-29T18:14:08.024Z,45.65
2018-05-29T18:16:36.340Z,45.92
2018-05-29T18:19:04.706Z,46.20
2018-05-29T18:21:33.041Z,46.83
2018-05-29T18:24:01.403Z,47.47
2018-05-29T18:26:29.738Z,47.32
2018-05-29T18:28:58.088Z,47.42
2018-05-29T18:31:26.420Z,47.34
2018-05-29T18:33:54.781Z,47.66
2018-05-29T18:36:23.121Z,47.40
2018-05-29T18:38:51.474Z,47.46
2018-05-29T18:41:19.808Z,47.56
2018-05-29T18:43:48.165Z,47.50
2018-05-29T18:46:16.506Z,47.39
2018-05-29T18:48:44.859Z,46.06
2018-05-29T18:51:13.210Z,47.31
2018-05-29T18:53:41.549Z,47.35
2018-05-29T18:56:09.911Z,47.20
2018-05-29T18:58:43.898Z,47.30
2018-05-29T19:01:12.252Z,47.35
2018-05-29T19:03:40.584Z,47.32
2018-05-29T19:06:08.940Z,47.92
2018-05-29T19:08:37.277Z,48.02
2018-05-29T19:11:05.641Z,48.30
2018-05-29T19:13:33.983Z,48.71
2018-05-29T19:16:02.340Z,48.91
2018-05-29T19:18:30.689Z,49.11
2018-05-29T19:20:59.046Z,49.37
2018-05-29T19:23:27.392Z,49.07
2018-05-29T19:25:55.737Z,48.74
2018-05-29T19:28:24.073Z,48.47
2018-05-29T19:30:52.437Z,48.28
2018-05-29T19:33:20.773Z,47.91
2018-05-29T19:35:49.145Z,48.19
2018-05-29T19:38:17.475Z,48.09
2018-05-29T19:40:45.831Z,48.66
2018-05-29T19:43:14.156Z,48.71
2018-05-29T19:45:42.509Z,47.81
2018-05-29T19:48:10.841Z,47.18
2018-05-29T19:50:39.202Z,47.29
2018-05-29T19:53:07.520Z,47.42
2018-05-29T19:55:35.868Z,47.38
2018-05-29T19:58:04.210Z,47.52
2018-05-29T20:00:32.560Z,47.71
2018-05-29T20:03:00.884Z,47.85
2018-05-29T20:05:29.236Z,47.81
2018-05-29T20:07:57.568Z,47.64
2018-05-29T20:10:25.922Z,47.57
2018-05-29T20:12:54.249Z,47.54
2018-05-29T20:15:22.596Z,48.00
2018-05-29T20:17:50.933Z,47.97
2018-05-29T20:20:19.287Z,47.50
2018-05-29T20:22:47.612Z,47.70
2018-05-29T20:25:15.968Z,47.91
2018-05-29T20:27:44.295Z,47.98
2018-05-29T20:30:12.654Z,48.19
2018-05-29T20:32:40.990Z,49.28
2018-05-29T20:35:09.340Z,50.48
2018-05-29T20:37:37.676Z,53.81
2018-05-29T20:40:06.384Z,55.71
2018-05-29T20:42:34.716Z,57.54
2018-05-29T20:45:03.157Z,57.61
2018-05-29T20:47:31.489Z,57.17
2018-05-29T20:49:59.876Z,57.29
2018-05-29T20:52:28.196Z,57.02
2018-05-29T20:54:56.524Z,56.89
2018-05-29T20:57:24.882Z,56.84
2018-05-29T20:59:53.208Z,56.89
2018-05-29T21:02:21.565Z,58.55
2018-05-29T21:04:49.896Z,57.92
2018-05-29T21:07:18.254Z,57.56
2018-05-29T21:09:46.590Z,59.91
2018-05-29T21:12:14.937Z,59.51
2018-05-29T21:14:43.276Z,61.07
2018-05-29T21:17:11.628Z,62.53
2018-05-29T21:19:39.957Z,64.36
2018-05-29T21:22:08.311Z,64.27
2018-05-29T21:24:36.647Z,64.39
2018-05-29T21:27:05.001Z,64.87
2018-05-29T21:29:33.328Z,64.73
2018-05-29T21:32:01.676Z,66.03
2018-05-29T21:34:30.060Z,65.75
2018-05-29T21:36:58.413Z,65.80
2018-05-29T21:39:26.740Z,65.89
2018-05-29T21:41:55.092Z,67.24
2018-05-29T21:44:23.427Z,67.62
2018-05-29T21:46:51.772Z,68.23
2018-05-29T21:49:20.100Z,68.38
2018-05-29T21:51:48.457Z,68.96
2018-05-29T21:54:16.784Z,67.99
2018-05-29T21:56:45.152Z,68.33
2018-05-29T21:59:13.468Z,68.52
2018-05-29T22:01:41.824Z,68.13
2018-05-29T22:04:10.158Z,68.19
2018-05-29T22:06:38.508Z,69.46
2018-05-29T22:09:06.853Z,70.90
2018-05-29T22:11:35.203Z,70.87
2018-05-29T22:14:03.528Z,71.50
2018-05-29T22:16:31.891Z,72.16
2018-05-29T22:19:00.221Z,71.46
2018-05-29T22:21:28.569Z,72.56
2018-05-29T22:23:56.938Z,72.65
2018-05-29T22:26:25.239Z,72.43
2018-05-29T22:28:53.569Z,72.48
2018-05-29T22:31:21.917Z,71.26
2018-05-29T22:33:50.240Z,70.65
2018-05-29T22:36:18.591Z,70.57
2018-05-29T22:38:46.928Z,71.41
2018-05-29T22:41:15.281Z,69.86
2018-05-29T22:43:43.614Z,69.63
2018-05-29T22:46:11.961Z,70.51
2018-05-29T22:48:40.302Z,71.48
2018-05-29T22:51:08.667Z,71.87
2018-05-29T22:53:36.984Z,71.93
2018-05-29T22:56:05.312Z,71.92
2018-05-29T22:58:33.669Z,71.37
2018-05-29T23:01:02.001Z,71.62
2018-05-29T23:03:30.353Z,71.70
2018-05-29T23:05:58.689Z,71.28
2018-05-29T23:08:27.032Z,71.60
2018-05-29T23:10:55.368Z,72.11
2018-05-29T23:13:23.720Z,72.63
2018-05-29T23:15:52.053Z,73.02
2018-05-29T23:18:20.409Z,73.58
2018-05-29T23:20:48.745Z,74.28
2018-05-29T23:23:17.088Z,74.55
2018-05-29T23:25:45.424Z,74.55
2018-05-29T23:28:13.777Z,74.09
2018-05-29T23:30:42.108Z,73.27
2018-05-29T23:33:10.460Z,72.79
2018-05-29T23:35:38.810Z,73.06
2018-05-29T23:38:07.156Z,73.52
2018-05-29T23:40:35.512Z,73.25
2018-05-29T23:43:03.869Z,73.11
2018-05-29T23:45:32.192Z,72.58
2018-05-29T23:48:00.544Z,73.01
2018-05-29T23:50:28.868Z,72.91
2018-05-29T23:52:57.220Z,72.84
2018-05-29T23:55:25.548Z,73.16
2018-05-29T23:57:53.905Z,73.04
